Terminal Aerodrome Forecast
Issued by NWS

Home | Current Version | Previous Version | Text Only | Print | Product List | Glossary On
Versions: 1 2 3 4 5 6 7 8 9 10 11 12 13 14 15 16 17 18 19
000
FTUS46 KMTR 260500 AAA
TAFSTS
TAF AMD
KSTS 260548Z 2606/2706 19003KT P6SM OVC009
     FM261800 17004KT P6SM OVC010
     FM262100 17008KT P6SM FEW015
     FM270500 16004KT P6SM BKN010=

USA.gov is the U.S. government's official web portal to all federal, state and local government web resources and services.